sensor_id;sensor_type;location;lat;lon;timestamp;pressure;altitude;pressure_sealevel;temperature;humidity
67109;BME280;54027;50.786;7.058;2023-05-27T00:01:57;102225.47;;;11.22;73.85
67109;BME280;54027;50.786;7.058;2023-05-27T00:04:23;102227.16;;;11.19;74.54
67109;BME280;54027;50.786;7.058;2023-05-27T00:06:48;102221.94;;;11.14;74.37
67109;BME280;54027;50.786;7.058;2023-05-27T00:09:14;102228.81;;;11.12;74.07
67109;BME280;54027;50.786;7.058;2023-05-27T00:11:39;102226.16;;;11.08;75.33
67109;BME280;54027;50.786;7.058;2023-05-27T00:14:05;102222.66;;;11.03;75.09
67109;BME280;54027;50.786;7.058;2023-05-27T00:16:30;102225.16;;;10.98;74.90
67109;BME280;54027;50.786;7.058;2023-05-27T00:18:57;102226.06;;;11.00;75.58
67109;BME280;54027;50.786;7.058;2023-05-27T00:21:23;102218.31;;;11.00;75.17
67109;BME280;54027;50.786;7.058;2023-05-27T00:23:51;102218.28;;;10.99;75.06
67109;BME280;54027;50.786;7.058;2023-05-27T00:26:19;102211.34;;;10.96;74.75
67109;BME280;54027;50.786;7.058;2023-05-27T00:28:45;102211.34;;;10.95;75.59
67109;BME280;54027;50.786;7.058;2023-05-27T00:31:10;102218.16;;;10.90;75.29
67109;BME280;54027;50.786;7.058;2023-05-27T00:33:36;102215.50;;;10.85;75.57
67109;BME280;54027;50.786;7.058;2023-05-27T00:36:01;102223.22;;;10.82;75.38
67109;BME280;54027;50.786;7.058;2023-05-27T00:38:27;102221.44;;;10.76;76.05
67109;BME280;54027;50.786;7.058;2023-05-27T00:40:53;102227.41;;;10.72;75.92
67109;BME280;54027;50.786;7.058;2023-05-27T00:43:18;102229.00;;;10.64;75.89
67109;BME280;54027;50.786;7.058;2023-05-27T00:45:44;102225.47;;;10.56;76.33
67109;BME280;54027;50.786;7.058;2023-05-27T00:48:09;102227.13;;;10.53;76.31
67109;BME280;54027;50.786;7.058;2023-05-27T00:50:35;102219.38;;;10.53;76.19
67109;BME280;54027;50.786;7.058;2023-05-27T00:53:02;102219.53;;;10.65;76.46
67109;BME280;54027;50.786;7.058;2023-05-27T00:55:27;102206.63;;;10.66;75.79
67109;BME280;54027;50.786;7.058;2023-05-27T00:57:53;102227.19;;;10.57;75.99
67109;BME280;54027;50.786;7.058;2023-05-27T01:00:20;102220.97;;;10.46;76.87
67109;BME280;54027;50.786;7.058;2023-05-27T01:02:46;102217.38;;;10.37;76.61
67109;BME280;54027;50.786;7.058;2023-05-27T01:05:14;102212.97;;;10.30;77.09
67109;BME280;54027;50.786;7.058;2023-05-27T01:10:36;102219.88;;;10.31;78.25
67109;BME280;54027;50.786;7.058;2023-05-27T01:13:06;102217.38;;;10.35;77.49
67109;BME280;54027;50.786;7.058;2023-05-27T01:15:33;102212.94;;;10.27;78.00
67109;BME280;54027;50.786;7.058;2023-05-27T01:18:01;102203.38;;;10.22;78.27
67109;BME280;54027;50.786;7.058;2023-05-27T01:20:28;102215.31;;;10.16;78.59
67109;BME280;54027;50.786;7.058;2023-05-27T01:22:55;102213.53;;;10.12;78.68
67109;BME280;54027;50.786;7.058;2023-05-27T01:25:23;102210.94;;;10.10;78.96
67109;BME280;54027;50.786;7.058;2023-05-27T01:27:49;102207.50;;;10.11;78.90
67109;BME280;54027;50.786;7.058;2023-05-27T01:30:15;102210.09;;;10.11;79.50
67109;BME280;54027;50.786;7.058;2023-05-27T01:33:17;102212.47;;;9.99;80.19
67109;BME280;54027;50.786;7.058;2023-05-27T01:38:10;102214.91;;;9.90;80.45
67109;BME280;54027;50.786;7.058;2023-05-27T01:40:39;102215.72;;;9.88;80.46
67109;BME280;54027;50.786;7.058;2023-05-27T01:43:05;102214.78;;;9.84;81.71
67109;BME280;54027;50.786;7.058;2023-05-27T01:45:32;102210.50;;;9.86;81.92
67109;BME280;54027;50.786;7.058;2023-05-27T01:47:58;102209.69;;;9.89;82.11
67109;BME280;54027;50.786;7.058;2023-05-27T01:50:23;102207.09;;;9.89;82.37
67109;BME280;54027;50.786;7.058;2023-05-27T01:52:49;102206.22;;;9.88;82.16
67109;BME280;54027;50.786;7.058;2023-05-27T01:55:14;102212.19;;;9.84;82.12
67109;BME280;54027;50.786;7.058;2023-05-27T01:57:40;102216.31;;;9.75;82.94
67109;BME280;54027;50.786;7.058;2023-05-27T02:00:06;102215.41;;;9.71;83.60
67109;BME280;54027;50.786;7.058;2023-05-27T02:02:34;102212.63;;;9.62;82.94
67109;BME280;54027;50.786;7.058;2023-05-27T02:05:00;102215.16;;;9.57;84.27
67109;BME280;54027;50.786;7.058;2023-05-27T02:07:25;102219.28;;;9.49;84.46
67109;BME280;54027;50.786;7.058;2023-05-27T02:09:51;102211.44;;;9.45;84.23
67109;BME280;54027;50.786;7.058;2023-05-27T02:12:17;102204.56;;;9.45;84.87
67109;BME280;54027;50.786;7.058;2023-05-27T02:14:42;102206.25;;;9.43;84.55
67109;BME280;54027;50.786;7.058;2023-05-27T02:17:10;102209.63;;;9.41;84.32
67109;BME280;54027;50.786;7.058;2023-05-27T02:19:36;102204.41;;;9.38;84.77
67109;BME280;54027;50.786;7.058;2023-05-27T02:22:02;102200.91;;;9.34;84.61
67109;BME280;54027;50.786;7.058;2023-05-27T02:24:27;102198.34;;;9.34;83.51
67109;BME280;54027;50.786;7.058;2023-05-27T02:26:53;102196.53;;;9.32;83.27
67109;BME280;54027;50.786;7.058;2023-05-27T02:29:18;102194.75;;;9.28;83.25
67109;BME280;54027;50.786;7.058;2023-05-27T02:31:43;102188.78;;;9.30;83.38
67109;BME280;54027;50.786;7.058;2023-05-27T02:34:09;102191.38;;;9.32;83.67
67109;BME280;54027;50.786;7.058;2023-05-27T02:36:34;102197.41;;;9.31;82.95
67109;BME280;54027;50.786;7.058;2023-05-27T02:39:00;102203.44;;;9.31;83.38
67109;BME280;54027;50.786;7.058;2023-05-27T02:41:26;102203.31;;;9.25;82.94
67109;BME280;54027;50.786;7.058;2023-05-27T02:43:52;102201.47;;;9.20;83.74
67109;BME280;54027;50.786;7.058;2023-05-27T02:46:17;102205.66;;;9.14;83.84
67109;BME280;54027;50.786;7.058;2023-05-27T02:48:43;102207.22;;;9.06;83.46
67109;BME280;54027;50.786;7.058;2023-05-27T02:51:08;102204.56;;;9.02;84.27
67109;BME280;54027;50.786;7.058;2023-05-27T02:53:33;102207.00;;;8.96;84.27
67109;BME280;54027;50.786;7.058;2023-05-27T02:55:59;102203.41;;;8.89;84.22
67109;BME280;54027;50.786;7.058;2023-05-27T02:58:24;102205.88;;;8.85;84.72
67109;BME280;54027;50.786;7.058;2023-05-27T03:00:50;102199.75;;;8.78;84.79
67109;BME280;54027;50.786;7.058;2023-05-27T03:03:15;102203.03;;;8.73;85.20
67109;BME280;54027;50.786;7.058;2023-05-27T03:05:40;102201.25;;;8.69;85.53
67109;BME280;54027;50.786;7.058;2023-05-27T03:08:06;102201.13;;;8.64;85.42
67109;BME280;54027;50.786;7.058;2023-05-27T03:10:32;102194.19;;;8.60;85.49
67109;BME280;54027;50.786;7.058;2023-05-27T03:12:58;102198.34;;;8.55;86.49
67109;BME280;54027;50.786;7.058;2023-05-27T03:15:23;102201.72;;;8.51;86.43
67109;BME280;54027;50.786;7.058;2023-05-27T03:17:49;102200.75;;;8.47;86.54
67109;BME280;54027;50.786;7.058;2023-05-27T03:20:15;102199.88;;;8.45;87.27
67109;BME280;54027;50.786;7.058;2023-05-27T03:22:42;102205.78;;;8.43;87.14
67109;BME280;54027;50.786;7.058;2023-05-27T03:25:08;102202.38;;;8.42;87.28
67109;BME280;54027;50.786;7.058;2023-05-27T03:27:33;102204.03;;;8.40;87.42
67109;BME280;54027;50.786;7.058;2023-05-27T03:29:59;102203.13;;;8.38;87.85
67109;BME280;54027;50.786;7.058;2023-05-27T03:32:24;102206.50;;;8.36;87.38
67109;BME280;54027;50.786;7.058;2023-05-27T03:34:50;102199.56;;;8.33;87.49
67109;BME280;54027;50.786;7.058;2023-05-27T03:37:15;102199.50;;;8.30;87.35
67109;BME280;54027;50.786;7.058;2023-05-27T03:39:41;102196.94;;;8.32;87.54
67109;BME280;54027;50.786;7.058;2023-05-27T03:42:06;102188.34;;;8.31;87.80
67109;BME280;54027;50.786;7.058;2023-05-27T03:44:32;102186.66;;;8.32;87.82
67109;BME280;54027;50.786;7.058;2023-05-27T03:46:58;102188.41;;;8.33;87.85
67109;BME280;54027;50.786;7.058;2023-05-27T03:49:23;102182.38;;;8.34;88.04
67109;BME280;54027;50.786;7.058;2023-05-27T03:51:49;102187.63;;;8.37;88.07
67109;BME280;54027;50.786;7.058;2023-05-27T03:54:14;102184.25;;;8.39;88.05
67109;BME280;54027;50.786;7.058;2023-05-27T03:56:40;102177.44;;;8.43;87.24
67109;BME280;54027;50.786;7.058;2023-05-27T03:59:05;102180.97;;;8.46;87.13
67109;BME280;54027;50.786;7.058;2023-05-27T04:01:32;102181.09;;;8.51;86.61
67109;BME280;54027;50.786;7.058;2023-05-27T04:03:57;102180.31;;;8.55;86.34
67109;BME280;54027;50.786;7.058;2023-05-27T04:06:22;102179.53;;;8.59;85.95
67109;BME280;54027;50.786;7.058;2023-05-27T04:08:48;102181.38;;;8.63;85.90
67109;BME280;54027;50.786;7.058;2023-05-27T04:11:13;102174.53;;;8.67;85.65
67109;BME280;54027;50.786;7.058;2023-05-27T04:13:39;102178.06;;;8.70;85.64
67109;BME280;54027;50.786;7.058;2023-05-27T04:16:05;102176.44;;;8.74;85.95
67109;BME280;54027;50.786;7.058;2023-05-27T04:18:30;102168.75;;;8.77;85.31
67109;BME280;54027;50.786;7.058;2023-05-27T04:20:56;102171.41;;;8.81;85.75
67109;BME280;54027;50.786;7.058;2023-05-27T04:23:23;102178.44;;;8.87;85.05
67109;BME280;54027;50.786;7.058;2023-05-27T04:25:49;102172.50;;;8.91;85.16
67109;BME280;54027;50.786;7.058;2023-05-27T04:28:15;102172.59;;;8.95;84.66
67109;BME280;54027;50.786;7.058;2023-05-27T04:30:40;102176.19;;;9.03;84.63
67109;BME280;54027;50.786;7.058;2023-05-27T04:33:06;102176.25;;;9.05;84.59
67109;BME280;54027;50.786;7.058;2023-05-27T04:35:33;102171.13;;;9.08;83.93
67109;BME280;54027;50.786;7.058;2023-05-27T04:37:58;102172.94;;;9.12;83.34
67109;BME280;54027;50.786;7.058;2023-05-27T04:40:26;102173.88;;;9.17;83.44
67109;BME280;54027;50.786;7.058;2023-05-27T04:42:52;102174.00;;;9.23;83.35
67109;BME280;54027;50.786;7.058;2023-05-27T04:45:17;102174.06;;;9.26;83.09
67109;BME280;54027;50.786;7.058;2023-05-27T04:47:44;102181.03;;;9.30;83.06
67109;BME280;54027;50.786;7.058;2023-05-27T04:50:10;102175.03;;;9.31;82.92
67109;BME280;54027;50.786;7.058;2023-05-27T04:52:38;102175.06;;;9.33;82.21
67109;BME280;54027;50.786;7.058;2023-05-27T04:55:04;102181.16;;;9.38;82.41
67109;BME280;54027;50.786;7.058;2023-05-27T04:57:30;102170.91;;;9.41;82.55
67109;BME280;54027;50.786;7.058;2023-05-27T04:59:55;102179.59;;;9.44;82.72
67109;BME280;54027;50.786;7.058;2023-05-27T05:02:30;102173.66;;;9.50;81.74
67109;BME280;54027;50.786;7.058;2023-05-27T05:05:07;102175.47;;;9.54;82.81
67109;BME280;54027;50.786;7.058;2023-05-27T05:07:41;102175.63;;;9.60;82.28
67109;BME280;54027;50.786;7.058;2023-05-27T05:10:10;102178.31;;;9.67;82.78
67109;BME280;54027;50.786;7.058;2023-05-27T05:12:36;102177.63;;;9.76;82.78
67109;BME280;54027;50.786;7.058;2023-05-27T05:15:03;102174.34;;;9.86;82.11
67109;BME280;54027;50.786;7.058;2023-05-27T05:17:28;102177.97;;;9.97;82.19
67109;BME280;54027;50.786;7.058;2023-05-27T05:19:54;102176.41;;;10.05;82.13
67109;BME280;54027;50.786;7.058;2023-05-27T05:22:20;102183.41;;;10.12;81.37
67109;BME280;54027;50.786;7.058;2023-05-27T05:24:50;102179.97;;;10.13;81.50
67109;BME280;54027;50.786;7.058;2023-05-27T05:27:16;102175.69;;;10.15;81.82
67109;BME280;54027;50.786;7.058;2023-05-27T05:29:41;102186.94;;;10.19;81.70
67109;BME280;54027;50.786;7.058;2023-05-27T05:32:08;102188.78;;;10.26;81.62
67109;BME280;54027;50.786;7.058;2023-05-27T05:34:36;102190.56;;;10.30;81.74
67109;BME280;54027;50.786;7.058;2023-05-27T05:37:01;102185.53;;;10.39;82.11
67109;BME280;54027;50.786;7.058;2023-05-27T05:39:27;102184.00;;;10.50;81.26
67109;BME280;54027;50.786;7.058;2023-05-27T05:41:52;102185.84;;;10.60;80.48
67109;BME280;54027;50.786;7.058;2023-05-27T05:44:18;102182.50;;;10.67;79.37
67109;BME280;54027;50.786;7.058;2023-05-27T05:46:43;102182.56;;;10.70;78.70
67109;BME280;54027;50.786;7.058;2023-05-27T05:49:09;102187.72;;;10.72;79.50
67109;BME280;54027;50.786;7.058;2023-05-27T05:51:34;102188.72;;;10.80;79.62
67109;BME280;54027;50.786;7.058;2023-05-27T05:54:00;102187.97;;;10.90;79.38
67109;BME280;54027;50.786;7.058;2023-05-27T05:56:26;102189.00;;;11.03;79.30
67109;BME280;54027;50.786;7.058;2023-05-27T05:58:52;102175.31;;;11.10;78.56
67109;BME280;54027;50.786;7.058;2023-05-27T06:01:17;102178.00;;;11.22;78.35
67109;BME280;54027;50.786;7.058;2023-05-27T06:03:43;102173.75;;;11.24;77.04
67109;BME280;54027;50.786;7.058;2023-05-27T06:06:09;102166.94;;;11.30;76.90
67109;BME280;54027;50.786;7.058;2023-05-27T06:08:34;102171.28;;;11.36;76.81
67109;BME280;54027;50.786;7.058;2023-05-27T06:11:00;102170.56;;;11.46;76.70
67109;BME280;54027;50.786;7.058;2023-05-27T06:13:25;102167.16;;;11.50;76.11
67109;BME280;54027;50.786;7.058;2023-05-27T06:15:51;102163.78;;;11.57;75.70
67109;BME280;54027;50.786;7.058;2023-05-27T06:18:16;102158.69;;;11.68;75.60
67109;BME280;54027;50.786;7.058;2023-05-27T06:20:41;102167.41;;;11.79;76.30
67109;BME280;54027;50.786;7.058;2023-05-27T06:23:07;102168.31;;;11.81;76.31
67109;BME280;54027;50.786;7.058;2023-05-27T06:25:32;102167.56;;;11.93;75.84
67109;BME280;54027;50.786;7.058;2023-05-27T06:27:58;102139.97;;;12.02;74.40
67109;BME280;54027;50.786;7.058;2023-05-27T06:30:24;102141.84;;;12.18;73.61
67109;BME280;54027;50.786;7.058;2023-05-27T06:32:50;102129.81;;;12.29;72.37
67109;BME280;54027;50.786;7.058;2023-05-27T06:35:15;102129.84;;;12.38;72.51
67109;BME280;54027;50.786;7.058;2023-05-27T06:37:41;102113.47;;;12.44;71.36
67109;BME280;54027;50.786;7.058;2023-05-27T06:40:07;102101.47;;;12.61;71.09
67109;BME280;54027;50.786;7.058;2023-05-27T06:42:32;102105.84;;;12.74;71.28
67109;BME280;54027;50.786;7.058;2023-05-27T06:44:58;102098.97;;;12.90;70.64
67109;BME280;54027;50.786;7.058;2023-05-27T06:47:23;102087.81;;;13.02;70.37
67109;BME280;54027;50.786;7.058;2023-05-27T06:49:49;102101.69;;;13.16;70.61
67109;BME280;54027;50.786;7.058;2023-05-27T06:52:14;102090.44;;;13.27;70.12
67109;BME280;54027;50.786;7.058;2023-05-27T06:54:40;102063.63;;;13.30;68.67
67109;BME280;54027;50.786;7.058;2023-05-27T06:57:05;102055.84;;;13.31;68.07
67109;BME280;54027;50.786;7.058;2023-05-27T06:59:30;102069.69;;;13.32;68.79
67109;BME280;54027;50.786;7.058;2023-05-27T07:01:56;102080.09;;;13.42;69.30
67109;BME280;54027;50.786;7.058;2023-05-27T07:04:22;102049.78;;;13.50;67.88
67109;BME280;54027;50.786;7.058;2023-05-27T07:06:47;102041.13;;;13.64;67.35
67109;BME280;54027;50.786;7.058;2023-05-27T07:09:13;102046.28;;;13.71;67.56
67109;BME280;54027;50.786;7.058;2023-05-27T07:11:39;102027.22;;;13.87;66.14
67109;BME280;54027;50.786;7.058;2023-05-27T07:14:05;102028.94;;;14.05;66.20
67109;BME280;54027;50.786;7.058;2023-05-27T07:16:31;102017.66;;;14.15;65.65
67109;BME280;54027;50.786;7.058;2023-05-27T07:18:56;101997.69;;;14.22;64.25
67109;BME280;54027;50.786;7.058;2023-05-27T07:21:21;102007.19;;;14.29;64.79
67109;BME280;54027;50.786;7.058;2023-05-27T07:23:47;102014.97;;;14.38;65.47
67109;BME280;54027;50.786;7.058;2023-05-27T07:26:12;102000.19;;;14.53;64.76
67109;BME280;54027;50.786;7.058;2023-05-27T07:28:38;102000.22;;;14.35;64.45
67109;BME280;54027;50.786;7.058;2023-05-27T07:31:04;102018.41;;;14.50;65.06
67109;BME280;54027;50.786;7.058;2023-05-27T07:33:30;101992.31;;;14.62;63.68
67109;BME280;54027;50.786;7.058;2023-05-27T07:35:55;101989.66;;;14.75;63.47
67109;BME280;54027;50.786;7.058;2023-05-27T07:38:21;101998.25;;;14.84;63.54
67109;BME280;54027;50.786;7.058;2023-05-27T07:40:46;101987.84;;;14.86;62.85
67109;BME280;54027;50.786;7.058;2023-05-27T07:43:12;101994.75;;;14.91;62.85
67109;BME280;54027;50.786;7.058;2023-05-27T07:45:37;101999.88;;;15.00;63.03
67109;BME280;54027;50.786;7.058;2023-05-27T07:48:02;101983.34;;;15.09;62.25
67109;BME280;54027;50.786;7.058;2023-05-27T07:50:28;101971.13;;;15.18;61.88
67109;BME280;54027;50.786;7.058;2023-05-27T07:52:53;101960.63;;;15.28;61.53
67109;BME280;54027;50.786;7.058;2023-05-27T07:55:19;101970.94;;;15.40;61.24
67109;BME280;54027;50.786;7.058;2023-05-27T07:57:44;101965.72;;;15.38;61.58
67109;BME280;54027;50.786;7.058;2023-05-27T08:00:10;101943.03;;;15.51;60.64
67109;BME280;54027;50.786;7.058;2023-05-27T08:02:35;101948.09;;;15.67;61.01
67109;BME280;54027;50.786;7.058;2023-05-27T08:05:02;101914.22;;;15.66;58.99
67109;BME280;54027;50.786;7.058;2023-05-27T08:07:29;101935.81;;;15.77;60.19
67109;BME280;54027;50.786;7.058;2023-05-27T08:09:54;101935.72;;;15.88;60.70
67109;BME280;54027;50.786;7.058;2023-05-27T08:12:20;101885.13;;;16.01;58.41
67109;BME280;54027;50.786;7.058;2023-05-27T08:14:45;101878.84;;;16.17;57.70
67109;BME280;54027;50.786;7.058;2023-05-27T08:17:11;101875.28;;;16.22;57.49
67109;BME280;54027;50.786;7.058;2023-05-27T08:19:36;101873.19;;;16.46;57.78
67109;BME280;54027;50.786;7.058;2023-05-27T08:22:02;101865.13;;;16.61;57.39
67109;BME280;54027;50.786;7.058;2023-05-27T08:24:28;101882.44;;;16.66;58.43
67109;BME280;54027;50.786;7.058;2023-05-27T08:26:57;101872.72;;;16.76;57.61
67109;BME280;54027;50.786;7.058;2023-05-27T08:29:22;101865.66;;;16.84;57.33
67109;BME280;54027;50.786;7.058;2023-05-27T08:31:52;101854.25;;;16.90;57.06
67109;BME280;54027;50.786;7.058;2023-05-27T08:34:18;101854.22;;;16.91;57.35
67109;BME280;54027;50.786;7.058;2023-05-27T08:36:44;101846.34;;;16.93;56.42
67109;BME280;54027;50.786;7.058;2023-05-27T08:39:09;101850.44;;;17.09;56.54
67109;BME280;54027;50.786;7.058;2023-05-27T08:41:35;101853.53;;;17.30;56.35
67109;BME280;54027;50.786;7.058;2023-05-27T08:44:01;101799.25;;;17.43;53.20
67109;BME280;54027;50.786;7.058;2023-05-27T08:46:27;101796.81;;;17.34;53.51
67109;BME280;54027;50.786;7.058;2023-05-27T08:48:53;101796.03;;;17.30;53.23
67109;BME280;54027;50.786;7.058;2023-05-27T08:51:21;101817.47;;;17.46;54.13
67109;BME280;54027;50.786;7.058;2023-05-27T08:53:47;101803.53;;;17.47;53.53
67109;BME280;54027;50.786;7.058;2023-05-27T08:56:14;101822.56;;;17.54;54.00
67109;BME280;54027;50.786;7.058;2023-05-27T08:58:41;101807.53;;;17.63;53.51
67109;BME280;54027;50.786;7.058;2023-05-27T09:01:07;101799.63;;;17.66;53.29
67109;BME280;54027;50.786;7.058;2023-05-27T09:03:33;101791.41;;;17.86;52.53
67109;BME280;54027;50.786;7.058;2023-05-27T09:05:58;101773.69;;;17.99;51.24
67109;BME280;54027;50.786;7.058;2023-05-27T09:08:27;101764.84;;;18.04;50.89
67109;BME280;54027;50.786;7.058;2023-05-27T09:10:52;101761.09;;;18.14;50.71
67109;BME280;54027;50.786;7.058;2023-05-27T09:13:28;101765.94;;;18.31;50.72
67109;BME280;54027;50.786;7.058;2023-05-27T09:16:01;101774.22;;;18.48;50.95
67109;BME280;54027;50.786;7.058;2023-05-27T09:18:30;101746.81;;;18.61;49.89
67109;BME280;54027;50.786;7.058;2023-05-27T09:20:56;101749.34;;;18.64;49.82
67109;BME280;54027;50.786;7.058;2023-05-27T09:23:22;101727.44;;;18.68;48.65
67109;BME280;54027;50.786;7.058;2023-05-27T09:25:47;101726.25;;;18.80;48.01
67109;BME280;54027;50.786;7.058;2023-05-27T09:28:20;101678.75;;;18.93;45.64
67109;BME280;54027;50.786;7.058;2023-05-27T09:30:46;101684.13;;;19.20;45.90
67109;BME280;54027;50.786;7.058;2023-05-27T09:33:12;101674.78;;;19.39;45.56
67109;BME280;54027;50.786;7.058;2023-05-27T09:35:38;101688.38;;;19.51;45.83
67109;BME280;54027;50.786;7.058;2023-05-27T09:38:08;101686.53;;;19.55;45.10
67109;BME280;54027;50.786;7.058;2023-05-27T09:40:36;101688.44;;;19.78;45.25
67109;BME280;54027;50.786;7.058;2023-05-27T09:43:02;101663.56;;;19.91;44.24
67109;BME280;54027;50.786;7.058;2023-05-27T09:45:28;101663.81;;;20.09;44.16
67109;BME280;54027;50.786;7.058;2023-05-27T09:47:53;101666.88;;;20.22;43.89
67109;BME280;54027;50.786;7.058;2023-05-27T09:50:20;101656.16;;;20.28;43.21
67109;BME280;54027;50.786;7.058;2023-05-27T09:52:47;101649.34;;;20.23;41.56
67109;BME280;54027;50.786;7.058;2023-05-27T09:55:14;101641.00;;;20.11;41.33
67109;BME280;54027;50.786;7.058;2023-05-27T09:57:40;101652.75;;;20.00;41.72
67109;BME280;54027;50.786;7.058;2023-05-27T10:00:07;101700.81;;;20.28;43.62
67109;BME280;54027;50.786;7.058;2023-05-27T10:02:44;101662.22;;;20.55;42.56
67109;BME280;54027;50.786;7.058;2023-05-27T10:05:12;101651.69;;;20.56;41.89
67109;BME280;54027;50.786;7.058;2023-05-27T10:07:42;101637.63;;;20.57;40.66
67109;BME280;54027;50.786;7.058;2023-05-27T10:10:09;101650.03;;;20.54;41.20
67109;BME280;54027;50.786;7.058;2023-05-27T10:12:37;101657.38;;;20.69;41.54
67109;BME280;54027;50.786;7.058;2023-05-27T10:15:03;101640.66;;;20.95;41.07
67109;BME280;54027;50.786;7.058;2023-05-27T10:17:51;101630.66;;;21.04;40.52
67109;BME280;54027;50.786;7.058;2023-05-27T10:20:24;101619.41;;;21.01;40.29
67109;BME280;54027;50.786;7.058;2023-05-27T10:22:51;101614.28;;;21.19;39.96
67109;BME280;54027;50.786;7.058;2023-05-27T10:25:16;101613.56;;;21.38;40.04
67109;BME280;54027;50.786;7.058;2023-05-27T10:27:46;101619.72;;;21.60;40.67
67109;BME280;54027;50.786;7.058;2023-05-27T10:30:13;101602.78;;;21.67;39.31
67109;BME280;54027;50.786;7.058;2023-05-27T10:32:51;101595.06;;;21.62;38.98
67109;BME280;54027;50.786;7.058;2023-05-27T10:35:19;101607.53;;;21.79;39.22
67109;BME280;54027;50.786;7.058;2023-05-27T10:37:46;101583.44;;;21.68;38.27
67109;BME280;54027;50.786;7.058;2023-05-27T10:40:12;101582.44;;;21.49;38.09
67109;BME280;54027;50.786;7.058;2023-05-27T10:42:37;101584.75;;;21.58;38.07
67109;BME280;54027;50.786;7.058;2023-05-27T10:45:04;101608.97;;;21.66;39.15
67109;BME280;54027;50.786;7.058;2023-05-27T10:47:34;101594.53;;;21.53;38.59
67109;BME280;54027;50.786;7.058;2023-05-27T10:50:09;101604.22;;;21.74;39.36
67109;BME280;54027;50.786;7.058;2023-05-27T10:52:37;101597.16;;;21.96;38.65
67109;BME280;54027;50.786;7.058;2023-05-27T10:55:04;101577.81;;;21.97;38.34
67109;BME280;54027;50.786;7.058;2023-05-27T10:57:30;101607.38;;;22.24;39.78
67109;BME280;54027;50.786;7.058;2023-05-27T11:00:04;101573.13;;;22.04;38.00
67109;BME280;54027;50.786;7.058;2023-05-27T11:02:34;101575.84;;;22.22;38.51
67109;BME280;54027;50.786;7.058;2023-05-27T11:05:00;101564.78;;;22.34;37.45
67109;BME280;54027;50.786;7.058;2023-05-27T11:07:26;101549.09;;;22.31;36.80
67109;BME280;54027;50.786;7.058;2023-05-27T11:09:55;101532.63;;;22.47;35.87
67109;BME280;54027;50.786;7.058;2023-05-27T11:12:22;101557.22;;;22.66;37.44
67109;BME280;54027;50.786;7.058;2023-05-27T11:14:53;101558.38;;;22.79;37.08
67109;BME280;54027;50.786;7.058;2023-05-27T11:17:19;101528.38;;;23.00;34.85
67109;BME280;54027;50.786;7.058;2023-05-27T11:19:45;101520.16;;;22.69;34.63
67109;BME280;54027;50.786;7.058;2023-05-27T11:22:12;101533.56;;;22.83;35.29
67109;BME280;54027;50.786;7.058;2023-05-27T11:24:38;101531.63;;;23.05;34.64
67109;BME280;54027;50.786;7.058;2023-05-27T11:27:14;101568.47;;;23.44;36.68
67109;BME280;54027;50.786;7.058;2023-05-27T11:29:48;101501.16;;;23.17;32.18
67109;BME280;54027;50.786;7.058;2023-05-27T11:32:15;101487.38;;;23.12;31.73
67109;BME280;54027;50.786;7.058;2023-05-27T11:34:46;101528.00;;;23.43;33.32
67109;BME280;54027;50.786;7.058;2023-05-27T11:37:12;101520.34;;;23.39;32.96
67109;BME280;54027;50.786;7.058;2023-05-27T11:39:38;101495.94;;;23.34;31.19
67109;BME280;54027;50.786;7.058;2023-05-27T11:42:13;101489.44;;;23.75;30.79
67109;BME280;54027;50.786;7.058;2023-05-27T11:44:49;101490.41;;;23.90;30.23
67109;BME280;54027;50.786;7.058;2023-05-27T11:47:16;101477.25;;;24.07;29.61
67109;BME280;54027;50.786;7.058;2023-05-27T11:49:41;101509.97;;;24.53;32.16
67109;BME280;54027;50.786;7.058;2023-05-27T11:52:07;101497.13;;;24.94;32.12
67109;BME280;54027;50.786;7.058;2023-05-27T11:54:32;101491.34;;;25.33;30.85
67109;BME280;54027;50.786;7.058;2023-05-27T11:56:57;101483.16;;;25.37;30.87
67109;BME280;54027;50.786;7.058;2023-05-27T11:59:25;101460.19;;;25.68;28.74
67109;BME280;54027;50.786;7.058;2023-05-27T12:01:52;101499.22;;;25.34;30.26
67109;BME280;54027;50.786;7.058;2023-05-27T12:04:19;101469.50;;;24.99;29.40
67109;BME280;54027;50.786;7.058;2023-05-27T12:06:45;101480.81;;;25.17;29.49
67109;BME280;54027;50.786;7.058;2023-05-27T12:09:11;101486.06;;;25.33;29.74
67109;BME280;54027;50.786;7.058;2023-05-27T12:11:37;101473.91;;;25.74;28.91
67109;BME280;54027;50.786;7.058;2023-05-27T12:14:04;101458.06;;;26.02;28.16
67109;BME280;54027;50.786;7.058;2023-05-27T12:16:30;101439.59;;;25.87;27.13
67109;BME280;54027;50.786;7.058;2023-05-27T12:18:55;101444.69;;;25.90;27.52
67109;BME280;54027;50.786;7.058;2023-05-27T12:21:21;101448.94;;;25.64;28.26
67109;BME280;54027;50.786;7.058;2023-05-27T12:23:47;101441.53;;;25.55;27.09
67109;BME280;54027;50.786;7.058;2023-05-27T12:26:14;101459.97;;;25.56;28.01
67109;BME280;54027;50.786;7.058;2023-05-27T12:28:40;101425.47;;;25.28;26.75
67109;BME280;54027;50.786;7.058;2023-05-27T12:31:05;101440.22;;;25.62;27.75
67109;BME280;54027;50.786;7.058;2023-05-27T12:33:31;101443.56;;;26.08;27.74
67109;BME280;54027;50.786;7.058;2023-05-27T12:35:57;101414.31;;;25.81;26.62
67109;BME280;54027;50.786;7.058;2023-05-27T12:38:23;101464.34;;;25.86;28.61
67109;BME280;54027;50.786;7.058;2023-05-27T12:40:48;101458.97;;;26.01;28.18
67109;BME280;54027;50.786;7.058;2023-05-27T12:43:14;101419.63;;;25.81;25.80
67109;BME280;54027;50.786;7.058;2023-05-27T12:45:40;101425.59;;;25.71;26.62
67109;BME280;54027;50.786;7.058;2023-05-27T12:48:05;101427.69;;;25.80;26.25
67109;BME280;54027;50.786;7.058;2023-05-27T12:50:31;101411.69;;;25.95;25.61
67109;BME280;54027;50.786;7.058;2023-05-27T12:52:57;101397.47;;;26.25;24.88
67109;BME280;54027;50.786;7.058;2023-05-27T12:55:23;101396.72;;;26.23;24.77